sensor_id;sensor_type;location;lat;lon;timestamp;P1;durP1;ratioP1;P2;durP2;ratioP2
1356;SDS011;672;48.746;9.210;2022-07-23T00:02:24;6.30;;;5.10;;
1356;SDS011;672;48.746;9.210;2022-07-23T00:04:49;5.50;;;5.10;;
1356;SDS011;672;48.746;9.210;2022-07-23T00:07:14;5.73;;;5.33;;
1356;SDS011;672;48.746;9.210;2022-07-23T00:09:39;4.93;;;4.60;;
1356;SDS011;672;48.746;9.210;2022-07-23T00:12:05;5.37;;;4.97;;
1356;SDS011;672;48.746;9.210;2022-07-23T00:14:30;5.60;;;5.20;;
1356;SDS011;672;48.746;9.210;2022-07-23T00:16:55;4.20;;;3.80;;
1356;SDS011;672;48.746;9.210;2022-07-23T00:19:20;4.80;;;4.50;;
1356;SDS011;672;48.746;9.210;2022-07-23T00:21:45;4.77;;;4.37;;
1356;SDS011;672;48.746;9.210;2022-07-23T00:24:11;5.33;;;4.27;;
1356;SDS011;672;48.746;9.210;2022-07-23T00:26:36;4.00;;;3.70;;
1356;SDS011;672;48.746;9.210;2022-07-23T00:29:01;4.57;;;4.27;;
1356;SDS011;672;48.746;9.210;2022-07-23T00:31:26;4.10;;;3.80;;
1356;SDS011;672;48.746;9.210;2022-07-23T00:33:52;4.50;;;4.20;;
1356;SDS011;672;48.746;9.210;2022-07-23T00:36:21;6.03;;;3.90;;
1356;SDS011;672;48.746;9.210;2022-07-23T00:38:46;4.77;;;4.37;;
1356;SDS011;672;48.746;9.210;2022-07-23T00:41:11;4.30;;;4.03;;
1356;SDS011;672;48.746;9.210;2022-07-23T00:43:37;4.43;;;4.13;;
1356;SDS011;672;48.746;9.210;2022-07-23T00:46:02;4.13;;;3.83;;
1356;SDS011;672;48.746;9.210;2022-07-23T00:48:27;3.60;;;3.23;;
1356;SDS011;672;48.746;9.210;2022-07-23T00:50:52;4.97;;;4.57;;
1356;SDS011;672;48.746;9.210;2022-07-23T00:53:18;4.47;;;4.07;;
1356;SDS011;672;48.746;9.210;2022-07-23T00:55:44;4.33;;;4.03;;
1356;SDS011;672;48.746;9.210;2022-07-23T00:58:09;4.10;;;3.80;;
1356;SDS011;672;48.746;9.210;2022-07-23T01:00:35;4.40;;;4.00;;
1356;SDS011;672;48.746;9.210;2022-07-23T01:03:00;4.50;;;4.10;;
1356;SDS011;672;48.746;9.210;2022-07-23T01:05:25;5.27;;;4.40;;
1356;SDS011;672;48.746;9.210;2022-07-23T01:07:51;4.30;;;4.00;;
1356;SDS011;672;48.746;9.210;2022-07-23T01:10:16;4.80;;;4.50;;
1356;SDS011;672;48.746;9.210;2022-07-23T01:12:57;4.40;;;4.00;;
1356;SDS011;672;48.746;9.210;2022-07-23T01:15:22;4.07;;;3.67;;
1356;SDS011;672;48.746;9.210;2022-07-23T01:17:48;4.20;;;3.90;;
1356;SDS011;672;48.746;9.210;2022-07-23T01:20:13;4.43;;;4.13;;
1356;SDS011;672;48.746;9.210;2022-07-23T01:22:38;4.27;;;3.97;;
1356;SDS011;672;48.746;9.210;2022-07-23T01:25:04;4.00;;;3.70;;
1356;SDS011;672;48.746;9.210;2022-07-23T01:27:29;4.00;;;3.70;;
1356;SDS011;672;48.746;9.210;2022-07-23T01:29:55;4.50;;;4.10;;
1356;SDS011;672;48.746;9.210;2022-07-23T01:32:21;4.03;;;3.80;;
1356;SDS011;672;48.746;9.210;2022-07-23T01:34:47;4.07;;;3.77;;
1356;SDS011;672;48.746;9.210;2022-07-23T01:37:12;3.93;;;3.67;;
1356;SDS011;672;48.746;9.210;2022-07-23T01:39:37;4.27;;;3.97;;
1356;SDS011;672;48.746;9.210;2022-07-23T01:42:02;4.80;;;3.77;;
1356;SDS011;672;48.746;9.210;2022-07-23T01:44:27;3.90;;;3.70;;
1356;SDS011;672;48.746;9.210;2022-07-23T01:46:53;3.97;;;3.67;;
1356;SDS011;672;48.746;9.210;2022-07-23T01:49:18;4.60;;;4.23;;
1356;SDS011;672;48.746;9.210;2022-07-23T01:51:43;4.40;;;4.00;;
1356;SDS011;672;48.746;9.210;2022-07-23T01:54:24;4.30;;;4.00;;
1356;SDS011;672;48.746;9.210;2022-07-23T01:56:50;4.50;;;4.20;;
1356;SDS011;672;48.746;9.210;2022-07-23T01:59:15;4.10;;;3.80;;
1356;SDS011;672;48.746;9.210;2022-07-23T02:01:40;4.47;;;4.17;;
1356;SDS011;672;48.746;9.210;2022-07-23T02:04:05;4.83;;;4.40;;
1356;SDS011;672;48.746;9.210;2022-07-23T02:06:30;4.20;;;3.90;;
1356;SDS011;672;48.746;9.210;2022-07-23T02:08:55;4.40;;;4.00;;
1356;SDS011;672;48.746;9.210;2022-07-23T02:11:21;3.87;;;3.63;;
1356;SDS011;672;48.746;9.210;2022-07-23T02:13:46;4.37;;;4.07;;
1356;SDS011;672;48.746;9.210;2022-07-23T02:16:11;4.53;;;4.10;;
1356;SDS011;672;48.746;9.210;2022-07-23T02:18:36;4.83;;;4.53;;
1356;SDS011;672;48.746;9.210;2022-07-23T02:21:01;3.70;;;3.50;;
1356;SDS011;672;48.746;9.210;2022-07-23T02:23:26;4.47;;;4.07;;
1356;SDS011;672;48.746;9.210;2022-07-23T02:25:52;4.07;;;3.87;;
1356;SDS011;672;48.746;9.210;2022-07-23T02:28:17;4.97;;;4.57;;
1356;SDS011;672;48.746;9.210;2022-07-23T02:30:42;4.53;;;4.23;;
1356;SDS011;672;48.746;9.210;2022-07-23T02:33:07;4.70;;;4.40;;
1356;SDS011;672;48.746;9.210;2022-07-23T02:35:33;4.30;;;4.00;;
1356;SDS011;672;48.746;9.210;2022-07-23T02:37:58;4.80;;;4.40;;
1356;SDS011;672;48.746;9.210;2022-07-23T02:40:23;4.47;;;4.23;;
1356;SDS011;672;48.746;9.210;2022-07-23T02:42:48;4.43;;;4.13;;
1356;SDS011;672;48.746;9.210;2022-07-23T02:45:13;4.63;;;4.23;;
1356;SDS011;672;48.746;9.210;2022-07-23T02:47:39;4.90;;;4.57;;
1356;SDS011;672;48.746;9.210;2022-07-23T02:50:04;4.60;;;4.20;;
1356;SDS011;672;48.746;9.210;2022-07-23T02:52:30;4.47;;;4.17;;
1356;SDS011;672;48.746;9.210;2022-07-23T02:54:55;4.20;;;3.90;;
1356;SDS011;672;48.746;9.210;2022-07-23T02:57:20;4.67;;;4.37;;
1356;SDS011;672;48.746;9.210;2022-07-23T02:59:45;4.80;;;4.37;;
1356;SDS011;672;48.746;9.210;2022-07-23T03:02:11;4.90;;;4.50;;
1356;SDS011;672;48.746;9.210;2022-07-23T03:04:36;5.70;;;4.60;;
1356;SDS011;672;48.746;9.210;2022-07-23T03:07:01;4.83;;;4.50;;
1356;SDS011;672;48.746;9.210;2022-07-23T03:09:26;4.83;;;4.43;;
1356;SDS011;672;48.746;9.210;2022-07-23T03:11:51;5.17;;;4.77;;
1356;SDS011;672;48.746;9.210;2022-07-23T03:14:17;4.83;;;4.43;;
1356;SDS011;672;48.746;9.210;2022-07-23T03:16:42;5.50;;;5.10;;
1356;SDS011;672;48.746;9.210;2022-07-23T03:19:08;5.40;;;5.10;;
1356;SDS011;672;48.746;9.210;2022-07-23T03:21:33;5.43;;;5.03;;
1356;SDS011;672;48.746;9.210;2022-07-23T03:23:59;5.33;;;4.93;;
1356;SDS011;672;48.746;9.210;2022-07-23T03:26:24;4.77;;;4.30;;
1356;SDS011;672;48.746;9.210;2022-07-23T03:28:50;4.67;;;4.37;;
1356;SDS011;672;48.746;9.210;2022-07-23T03:31:15;4.90;;;4.60;;
1356;SDS011;672;48.746;9.210;2022-07-23T03:33:40;4.47;;;4.17;;
1356;SDS011;672;48.746;9.210;2022-07-23T03:36:06;5.07;;;4.70;;
1356;SDS011;672;48.746;9.210;2022-07-23T03:38:31;5.13;;;4.70;;
1356;SDS011;672;48.746;9.210;2022-07-23T03:40:57;4.70;;;4.40;;
1356;SDS011;672;48.746;9.210;2022-07-23T03:43:22;5.13;;;4.73;;
1356;SDS011;672;48.746;9.210;2022-07-23T03:45:49;4.57;;;4.27;;
1356;SDS011;672;48.746;9.210;2022-07-23T03:48:14;4.90;;;4.50;;
1356;SDS011;672;48.746;9.210;2022-07-23T03:50:39;5.70;;;5.07;;
1356;SDS011;672;48.746;9.210;2022-07-23T03:53:05;5.20;;;4.70;;
1356;SDS011;672;48.746;9.210;2022-07-23T03:55:30;4.77;;;4.40;;
1356;SDS011;672;48.746;9.210;2022-07-23T03:57:55;5.50;;;5.10;;
1356;SDS011;672;48.746;9.210;2022-07-23T04:00:20;5.00;;;4.60;;
1356;SDS011;672;48.746;9.210;2022-07-23T04:02:46;5.20;;;4.77;;
1356;SDS011;672;48.746;9.210;2022-07-23T04:05:11;4.90;;;4.50;;
1356;SDS011;672;48.746;9.210;2022-07-23T04:07:36;5.13;;;4.73;;
1356;SDS011;672;48.746;9.210;2022-07-23T04:10:01;5.73;;;5.33;;
1356;SDS011;672;48.746;9.210;2022-07-23T04:12:27;5.20;;;4.70;;
1356;SDS011;672;48.746;9.210;2022-07-23T04:14:52;5.47;;;5.07;;
1356;SDS011;672;48.746;9.210;2022-07-23T04:17:17;4.90;;;4.60;;
1356;SDS011;672;48.746;9.210;2022-07-23T04:19:42;5.47;;;5.07;;
1356;SDS011;672;48.746;9.210;2022-07-23T04:22:09;5.77;;;5.27;;
1356;SDS011;672;48.746;9.210;2022-07-23T04:24:34;5.13;;;4.63;;
1356;SDS011;672;48.746;9.210;2022-07-23T04:27:00;5.60;;;5.20;;
1356;SDS011;672;48.746;9.210;2022-07-23T04:29:25;5.13;;;4.80;;
1356;SDS011;672;48.746;9.210;2022-07-23T04:31:50;5.83;;;5.33;;
1356;SDS011;672;48.746;9.210;2022-07-23T04:34:16;5.83;;;5.43;;
1356;SDS011;672;48.746;9.210;2022-07-23T04:36:41;5.30;;;4.90;;
1356;SDS011;672;48.746;9.210;2022-07-23T04:39:06;4.70;;;4.40;;
1356;SDS011;672;48.746;9.210;2022-07-23T04:41:31;5.00;;;4.60;;
1356;SDS011;672;48.746;9.210;2022-07-23T04:43:57;4.90;;;4.53;;
1356;SDS011;672;48.746;9.210;2022-07-23T04:46:22;5.10;;;4.73;;
1356;SDS011;672;48.746;9.210;2022-07-23T04:48:47;5.20;;;4.80;;
1356;SDS011;672;48.746;9.210;2022-07-23T04:51:12;5.20;;;4.83;;
1356;SDS011;672;48.746;9.210;2022-07-23T04:53:38;5.70;;;5.30;;
1356;SDS011;672;48.746;9.210;2022-07-23T04:56:03;5.73;;;5.23;;
1356;SDS011;672;48.746;9.210;2022-07-23T04:58:28;5.27;;;4.93;;
1356;SDS011;672;48.746;9.210;2022-07-23T05:00:54;6.40;;;5.40;;
1356;SDS011;672;48.746;9.210;2022-07-23T05:03:19;5.13;;;4.73;;
1356;SDS011;672;48.746;9.210;2022-07-23T05:05:44;5.90;;;5.40;;
1356;SDS011;672;48.746;9.210;2022-07-23T05:08:09;5.53;;;5.23;;
1356;SDS011;672;48.746;9.210;2022-07-23T05:10:34;6.60;;;6.00;;
1356;SDS011;672;48.746;9.210;2022-07-23T05:13:00;6.00;;;5.50;;
1356;SDS011;672;48.746;9.210;2022-07-23T05:15:25;5.43;;;4.90;;
1356;SDS011;672;48.746;9.210;2022-07-23T05:17:50;9.20;;;5.70;;
1356;SDS011;672;48.746;9.210;2022-07-23T05:20:15;6.10;;;5.70;;
1356;SDS011;672;48.746;9.210;2022-07-23T05:22:41;5.97;;;5.33;;
1356;SDS011;672;48.746;9.210;2022-07-23T05:25:07;6.77;;;6.00;;
1356;SDS011;672;48.746;9.210;2022-07-23T05:27:32;6.10;;;5.60;;
1356;SDS011;672;48.746;9.210;2022-07-23T05:29:57;6.33;;;5.70;;
1356;SDS011;672;48.746;9.210;2022-07-23T05:32:23;6.23;;;5.77;;
1356;SDS011;672;48.746;9.210;2022-07-23T05:34:48;5.40;;;4.80;;
1356;SDS011;672;48.746;9.210;2022-07-23T05:37:14;7.47;;;5.80;;
1356;SDS011;672;48.746;9.210;2022-07-23T05:39:39;6.83;;;5.87;;
1356;SDS011;672;48.746;9.210;2022-07-23T05:42:04;5.87;;;5.37;;
1356;SDS011;672;48.746;9.210;2022-07-23T05:44:29;5.77;;;5.33;;
1356;SDS011;672;48.746;9.210;2022-07-23T05:46:54;6.30;;;5.80;;
1356;SDS011;672;48.746;9.210;2022-07-23T05:49:20;6.37;;;5.87;;
1356;SDS011;672;48.746;9.210;2022-07-23T05:51:45;6.77;;;6.17;;
1356;SDS011;672;48.746;9.210;2022-07-23T05:54:10;7.17;;;6.53;;
1356;SDS011;672;48.746;9.210;2022-07-23T05:56:35;6.57;;;5.97;;
1356;SDS011;672;48.746;9.210;2022-07-23T05:59:01;6.50;;;5.90;;
1356;SDS011;672;48.746;9.210;2022-07-23T06:01:26;6.23;;;5.73;;
1356;SDS011;672;48.746;9.210;2022-07-23T06:03:51;6.73;;;6.13;;
1356;SDS011;672;48.746;9.210;2022-07-23T06:06:17;6.73;;;6.20;;
1356;SDS011;672;48.746;9.210;2022-07-23T06:08:42;6.87;;;6.13;;
1356;SDS011;672;48.746;9.210;2022-07-23T06:11:07;6.50;;;6.00;;
1356;SDS011;672;48.746;9.210;2022-07-23T06:13:32;7.20;;;6.60;;
1356;SDS011;672;48.746;9.210;2022-07-23T06:15:57;6.43;;;5.83;;
1356;SDS011;672;48.746;9.210;2022-07-23T06:18:23;5.70;;;5.30;;
1356;SDS011;672;48.746;9.210;2022-07-23T06:20:48;5.20;;;4.80;;
1356;SDS011;672;48.746;9.210;2022-07-23T06:23:13;5.93;;;5.43;;
1356;SDS011;672;48.746;9.210;2022-07-23T06:25:38;5.60;;;5.20;;
1356;SDS011;672;48.746;9.210;2022-07-23T06:28:04;5.90;;;5.40;;
1356;SDS011;672;48.746;9.210;2022-07-23T06:30:29;5.63;;;5.23;;
1356;SDS011;672;48.746;9.210;2022-07-23T06:32:54;5.47;;;5.07;;
1356;SDS011;672;48.746;9.210;2022-07-23T06:35:19;6.03;;;5.63;;
1356;SDS011;672;48.746;9.210;2022-07-23T06:37:45;5.97;;;5.47;;
1356;SDS011;672;48.746;9.210;2022-07-23T06:40:10;6.37;;;5.87;;
1356;SDS011;672;48.746;9.210;2022-07-23T06:42:35;6.30;;;5.83;;
1356;SDS011;672;48.746;9.210;2022-07-23T06:45:04;5.67;;;5.27;;
1356;SDS011;672;48.746;9.210;2022-07-23T06:47:31;6.40;;;6.00;;
1356;SDS011;672;48.746;9.210;2022-07-23T06:49:56;6.00;;;5.60;;
1356;SDS011;672;48.746;9.210;2022-07-23T06:52:21;5.53;;;5.13;;
1356;SDS011;672;48.746;9.210;2022-07-23T06:54:46;5.90;;;5.40;;
1356;SDS011;672;48.746;9.210;2022-07-23T06:57:12;5.40;;;5.07;;
1356;SDS011;672;48.746;9.210;2022-07-23T06:59:37;5.73;;;5.33;;
1356;SDS011;672;48.746;9.210;2022-07-23T07:02:05;5.73;;;5.40;;
1356;SDS011;672;48.746;9.210;2022-07-23T07:04:30;6.13;;;5.73;;
1356;SDS011;672;48.746;9.210;2022-07-23T07:06:56;5.73;;;5.37;;
1356;SDS011;672;48.746;9.210;2022-07-23T07:09:22;6.50;;;6.10;;
1356;SDS011;672;48.746;9.210;2022-07-23T07:11:47;5.77;;;5.37;;
1356;SDS011;672;48.746;9.210;2022-07-23T07:14:12;5.83;;;5.43;;
1356;SDS011;672;48.746;9.210;2022-07-23T07:16:37;6.13;;;5.63;;
1356;SDS011;672;48.746;9.210;2022-07-23T07:19:02;6.00;;;5.50;;
1356;SDS011;672;48.746;9.210;2022-07-23T07:21:28;5.53;;;5.07;;
1356;SDS011;672;48.746;9.210;2022-07-23T07:23:53;6.07;;;5.57;;
1356;SDS011;672;48.746;9.210;2022-07-23T07:26:18;6.80;;;6.10;;
1356;SDS011;672;48.746;9.210;2022-07-23T07:28:43;6.07;;;5.60;;
1356;SDS011;672;48.746;9.210;2022-07-23T07:31:09;5.77;;;5.47;;
1356;SDS011;672;48.746;9.210;2022-07-23T07:33:34;5.80;;;5.20;;
1356;SDS011;672;48.746;9.210;2022-07-23T07:35:59;5.77;;;5.37;;
1356;SDS011;672;48.746;9.210;2022-07-23T07:38:25;5.50;;;5.10;;
1356;SDS011;672;48.746;9.210;2022-07-23T07:40:50;5.43;;;5.03;;
1356;SDS011;672;48.746;9.210;2022-07-23T07:43:15;5.63;;;5.13;;
1356;SDS011;672;48.746;9.210;2022-07-23T07:45:41;6.50;;;6.00;;
1356;SDS011;672;48.746;9.210;2022-07-23T07:48:06;5.70;;;5.30;;
1356;SDS011;672;48.746;9.210;2022-07-23T07:50:31;6.10;;;5.50;;
1356;SDS011;672;48.746;9.210;2022-07-23T07:52:56;5.77;;;5.37;;
1356;SDS011;672;48.746;9.210;2022-07-23T07:55:21;5.87;;;5.37;;
1356;SDS011;672;48.746;9.210;2022-07-23T07:57:47;6.57;;;5.97;;
1356;SDS011;672;48.746;9.210;2022-07-23T08:00:12;5.67;;;5.27;;
1356;SDS011;672;48.746;9.210;2022-07-23T08:02:41;7.17;;;6.57;;
1356;SDS011;672;48.746;9.210;2022-07-23T08:05:07;6.23;;;5.77;;
1356;SDS011;672;48.746;9.210;2022-07-23T08:07:32;6.77;;;6.27;;
1356;SDS011;672;48.746;9.210;2022-07-23T08:09:57;5.67;;;5.30;;
1356;SDS011;672;48.746;9.210;2022-07-23T08:12:22;6.43;;;5.93;;
1356;SDS011;672;48.746;9.210;2022-07-23T08:14:48;5.80;;;5.30;;
1356;SDS011;672;48.746;9.210;2022-07-23T08:17:13;5.67;;;5.30;;
1356;SDS011;672;48.746;9.210;2022-07-23T08:19:38;5.93;;;5.53;;
1356;SDS011;672;48.746;9.210;2022-07-23T08:22:03;6.23;;;5.50;;
1356;SDS011;672;48.746;9.210;2022-07-23T08:24:28;5.53;;;5.13;;
1356;SDS011;672;48.746;9.210;2022-07-23T08:26:54;6.17;;;5.67;;
1356;SDS011;672;48.746;9.210;2022-07-23T08:29:19;5.97;;;5.37;;
1356;SDS011;672;48.746;9.210;2022-07-23T08:31:44;6.20;;;5.77;;
1356;SDS011;672;48.746;9.210;2022-07-23T08:34:10;5.03;;;4.63;;
1356;SDS011;672;48.746;9.210;2022-07-23T08:36:35;5.40;;;5.00;;
1356;SDS011;672;48.746;9.210;2022-07-23T08:39:01;5.83;;;5.43;;
1356;SDS011;672;48.746;9.210;2022-07-23T08:41:28;5.80;;;5.40;;
1356;SDS011;672;48.746;9.210;2022-07-23T08:43:53;5.63;;;5.30;;
1356;SDS011;672;48.746;9.210;2022-07-23T08:46:19;6.30;;;5.70;;
1356;SDS011;672;48.746;9.210;2022-07-23T08:48:45;5.70;;;5.30;;
1356;SDS011;672;48.746;9.210;2022-07-23T08:51:12;5.53;;;5.03;;
1356;SDS011;672;48.746;9.210;2022-07-23T08:53:37;5.40;;;5.00;;
1356;SDS011;672;48.746;9.210;2022-07-23T08:56:04;5.87;;;5.43;;
1356;SDS011;672;48.746;9.210;2022-07-23T08:58:30;5.80;;;5.37;;
1356;SDS011;672;48.746;9.210;2022-07-23T09:00:55;5.20;;;4.90;;
1356;SDS011;672;48.746;9.210;2022-07-23T09:03:25;5.47;;;5.07;;
1356;SDS011;672;48.746;9.210;2022-07-23T09:05:50;5.67;;;5.37;;
1356;SDS011;672;48.746;9.210;2022-07-23T09:08:17;6.00;;;5.50;;
1356;SDS011;672;48.746;9.210;2022-07-23T09:10:44;5.90;;;5.50;;
1356;SDS011;672;48.746;9.210;2022-07-23T09:15:50;5.83;;;5.53;;
1356;SDS011;672;48.746;9.210;2022-07-23T09:18:16;6.00;;;5.60;;
1356;SDS011;672;48.746;9.210;2022-07-23T09:20:41;5.67;;;5.23;;
1356;SDS011;672;48.746;9.210;2022-07-23T09:23:06;5.77;;;5.33;;
1356;SDS011;672;48.746;9.210;2022-07-23T09:25:31;5.73;;;5.33;;
1356;SDS011;672;48.746;9.210;2022-07-23T09:27:58;5.70;;;5.30;;
1356;SDS011;672;48.746;9.210;2022-07-23T09:30:25;5.33;;;4.93;;
1356;SDS011;672;48.746;9.210;2022-07-23T09:33:11;5.30;;;4.90;;
1356;SDS011;672;48.746;9.210;2022-07-23T09:35:43;5.83;;;5.43;;
1356;SDS011;672;48.746;9.210;2022-07-23T09:38:08;5.60;;;5.20;;
1356;SDS011;672;48.746;9.210;2022-07-23T09:40:34;5.73;;;5.23;;
1356;SDS011;672;48.746;9.210;2022-07-23T09:42:59;5.13;;;4.80;;
1356;SDS011;672;48.746;9.210;2022-07-23T09:45:24;5.60;;;5.20;;
1356;SDS011;672;48.746;9.210;2022-07-23T09:47:49;5.33;;;5.03;;
1356;SDS011;672;48.746;9.210;2022-07-23T09:50:15;5.50;;;5.00;;
1356;SDS011;672;48.746;9.210;2022-07-23T09:52:45;5.17;;;4.80;;
1356;SDS011;672;48.746;9.210;2022-07-23T09:55:12;5.90;;;5.40;;
1356;SDS011;672;48.746;9.210;2022-07-23T09:57:38;5.43;;;5.10;;
1356;SDS011;672;48.746;9.210;2022-07-23T10:00:05;5.30;;;5.00;;
1356;SDS011;672;48.746;9.210;2022-07-23T10:02:31;5.60;;;5.20;;
1356;SDS011;672;48.746;9.210;2022-07-23T10:04:57;6.50;;;6.00;;
1356;SDS011;672;48.746;9.210;2022-07-23T10:07:22;6.00;;;5.50;;
1356;SDS011;672;48.746;9.210;2022-07-23T10:09:50;5.70;;;5.30;;
1356;SDS011;672;48.746;9.210;2022-07-23T10:12:17;5.80;;;4.87;;
1356;SDS011;672;48.746;9.210;2022-07-23T10:14:50;5.53;;;5.13;;
1356;SDS011;672;48.746;9.210;2022-07-23T10:17:16;4.87;;;4.57;;
1356;SDS011;672;48.746;9.210;2022-07-23T10:19:41;5.70;;;5.30;;
1356;SDS011;672;48.746;9.210;2022-07-23T10:22:11;4.90;;;4.60;;
1356;SDS011;672;48.746;9.210;2022-07-23T10:32:17;5.57;;;5.23;;
1356;SDS011;672;48.746;9.210;2022-07-23T10:34:53;5.37;;;5.07;;
1356;SDS011;672;48.746;9.210;2022-07-23T10:40:07;5.77;;;5.30;;
1356;SDS011;672;48.746;9.210;2022-07-23T10:42:33;5.60;;;5.20;;
1356;SDS011;672;48.746;9.210;2022-07-23T10:44:58;6.30;;;5.90;;
1356;SDS011;672;48.746;9.210;2022-07-23T10:47:27;5.53;;;5.13;;
1356;SDS011;672;48.746;9.210;2022-07-23T10:57:54;5.23;;;4.83;;
1356;SDS011;672;48.746;9.210;2022-07-23T11:00:20;4.90;;;4.60;;
1356;SDS011;672;48.746;9.210;2022-07-23T11:02:46;5.47;;;5.10;;
1356;SDS011;672;48.746;9.210;2022-07-23T11:05:22;5.53;;;5.17;;
1356;SDS011;672;48.746;9.210;2022-07-23T11:16:26;5.13;;;4.83;;
1356;SDS011;672;48.746;9.210;2022-07-23T11:18:54;5.50;;;5.10;;
1356;SDS011;672;48.746;9.210;2022-07-23T11:34:35;4.77;;;4.47;;
1356;SDS011;672;48.746;9.210;2022-07-23T11:37:02;4.43;;;4.23;;
1356;SDS011;672;48.746;9.210;2022-07-23T11:39:28;5.37;;;5.07;;
1356;SDS011;672;48.746;9.210;2022-07-23T11:41:53;5.13;;;4.83;;
1356;SDS011;672;48.746;9.210;2022-07-23T11:44:28;5.43;;;4.97;;
1356;SDS011;672;48.746;9.210;2022-07-23T11:46:57;5.50;;;5.13;;
1356;SDS011;672;48.746;9.210;2022-07-23T11:49:23;5.50;;;4.87;;
1356;SDS011;672;48.746;9.210;2022-07-23T11:52:01;5.27;;;4.87;;
1356;SDS011;672;48.746;9.210;2022-07-23T11:54:27;4.93;;;4.63;;
1356;SDS011;672;48.746;9.210;2022-07-23T11:56:56;5.10;;;4.80;;
1356;SDS011;672;48.746;9.210;2022-07-23T11:59:21;5.10;;;4.80;;
1356;SDS011;672;48.746;9.210;2022-07-23T12:02:01;5.07;;;4.77;;
1356;SDS011;672;48.746;9.210;2022-07-23T12:04:45;4.90;;;4.60;;
1356;SDS011;672;48.746;9.210;2022-07-23T12:09:48;5.70;;;5.30;;
1356;SDS011;672;48.746;9.210;2022-07-23T12:12:13;5.10;;;4.80;;
1356;SDS011;672;48.746;9.210;2022-07-23T12:17:13;5.23;;;4.93;;
1356;SDS011;672;48.746;9.210;2022-07-23T12:19:38;5.20;;;4.90;;
1356;SDS011;672;48.746;9.210;2022-07-23T12:22:04;4.70;;;4.40;;
1356;SDS011;672;48.746;9.210;2022-07-23T12:24:29;4.90;;;4.60;;
1356;SDS011;672;48.746;9.210;2022-07-23T12:27:07;5.47;;;5.17;;
1356;SDS011;672;48.746;9.210;2022-07-23T12:29:36;5.73;;;5.33;;
1356;SDS011;672;48.746;9.210;2022-07-23T12:32:02;4.60;;;4.30;;
1356;SDS011;672;48.746;9.210;2022-07-23T12:34:27;5.43;;;5.03;;
1356;SDS011;672;48.746;9.210;2022-07-23T12:36:52;6.07;;;5.67;;
1356;SDS011;672;48.746;9.210;2022-07-23T12:39:30;5.50;;;5.10;;
1356;SDS011;672;48.746;9.210;2022-07-23T12:41:56;5.60;;;5.30;;
1356;SDS011;672;48.746;9.210;2022-07-23T12:44:21;4.97;;;4.67;;
1356;SDS011;672;48.746;9.210;2022-07-23T12:46:49;4.87;;;4.57;;
1356;SDS011;672;48.746;9.210;2022-07-23T12:49:24;4.80;;;4.50;;
1356;SDS011;672;48.746;9.210;2022-07-23T12:51:49;4.93;;;4.53;;
1356;SDS011;672;48.746;9.210;2022-07-23T12:54:15;4.93;;;4.67;;
1356;SDS011;672;48.746;9.210;2022-07-23T12:56:40;5.87;;;5.47;;
1356;SDS011;672;48.746;9.210;2022-07-23T12:59:13;5.47;;;5.17;;
1356;SDS011;672;48.746;9.210;2022-07-23T13:01:41;5.70;;;5.40;;
1356;SDS011;672;48.746;9.210;2022-07-23T13:06:33;5.97;;;5.57;;
1356;SDS011;672;48.746;9.210;2022-07-23T13:08:59;5.77;;;5.17;;
1356;SDS011;672;48.746;9.210;2022-07-23T13:11:24;5.37;;;4.97;;
1356;SDS011;672;48.746;9.210;2022-07-23T13:13:50;5.40;;;5.00;;
1356;SDS011;672;48.746;9.210;2022-07-23T13:16:15;5.80;;;5.40;;
1356;SDS011;672;48.746;9.210;2022-07-23T13:18:40;5.87;;;5.53;;
1356;SDS011;672;48.746;9.210;2022-07-23T13:21:06;5.93;;;5.53;;
1356;SDS011;672;48.746;9.210;2022-07-23T13:23:31;6.27;;;5.63;;
1356;SDS011;672;48.746;9.210;2022-07-23T13:25:56;5.60;;;5.20;;
1356;SDS011;672;48.746;9.210;2022-07-23T13:28:22;5.57;;;5.17;;
1356;SDS011;672;48.746;9.210;2022-07-23T13:30:47;5.20;;;4.90;;
1356;SDS011;672;48.746;9.210;2022-07-23T13:33:14;5.20;;;4.90;;
1356;SDS011;672;48.746;9.210;2022-07-23T13:35:40;5.40;;;5.10;;
1356;SDS011;672;48.746;9.210;2022-07-23T13:38:05;5.80;;;5.40;;
1356;SDS011;672;48.746;9.210;2022-07-23T13:40:32;6.73;;;5.00;;
1356;SDS011;672;48.746;9.210;2022-07-23T13:42:58;5.33;;;5.03;;
1356;SDS011;672;48.746;9.210;2022-07-23T13:45:23;6.40;;;6.00;;
1356;SDS011;672;48.746;9.210;2022-07-23T13:47:48;5.53;;;5.13;;
1356;SDS011;672;48.746;9.210;2022-07-23T13:50:14;5.30;;;4.90;;
1356;SDS011;672;48.746;9.210;2022-07-23T13:52:41;5.97;;;5.57;;
1356;SDS011;672;48.746;9.210;2022-07-23T13:55:06;5.90;;;5.57;;
1356;SDS011;672;48.746;9.210;2022-07-23T13:57:32;6.30;;;5.90;;
1356;SDS011;672;48.746;9.210;2022-07-23T13:59:57;6.07;;;5.67;;
1356;SDS011;672;48.746;9.210;2022-07-23T14:02:23;5.33;;;5.03;;
1356;SDS011;672;48.746;9.210;2022-07-23T14:04:48;5.67;;;5.17;;
1356;SDS011;672;48.746;9.210;2022-07-23T14:07:13;5.60;;;5.20;;
1356;SDS011;672;48.746;9.210;2022-07-23T14:09:39;5.60;;;5.30;;
1356;SDS011;672;48.746;9.210;2022-07-23T14:12:04;5.13;;;4.83;;
1356;SDS011;672;48.746;9.210;2022-07-23T14:14:29;5.70;;;5.30;;
1356;SDS011;672;48.746;9.210;2022-07-23T14:16:55;5.70;;;5.30;;
1356;SDS011;672;48.746;9.210;2022-07-23T14:19:20;6.30;;;5.80;;
1356;SDS011;672;48.746;9.210;2022-07-23T14:21:45;6.30;;;5.90;;
1356;SDS011;672;48.746;9.210;2022-07-23T14:24:13;5.70;;;5.40;;
1356;SDS011;672;48.746;9.210;2022-07-23T14:26:38;5.37;;;5.07;;
1356;SDS011;672;48.746;9.210;2022-07-23T14:29:03;6.00;;;5.60;;
1356;SDS011;672;48.746;9.210;2022-07-23T14:31:29;6.20;;;5.80;;
1356;SDS011;672;48.746;9.210;2022-07-23T14:33:54;6.50;;;6.13;;
1356;SDS011;672;48.746;9.210;2022-07-23T14:36:19;6.40;;;6.00;;
1356;SDS011;672;48.746;9.210;2022-07-23T14:38:44;6.80;;;6.40;;
1356;SDS011;672;48.746;9.210;2022-07-23T14:41:09;5.83;;;5.43;;
1356;SDS011;672;48.746;9.210;2022-07-23T14:43:35;6.40;;;5.90;;
1356;SDS011;672;48.746;9.210;2022-07-23T14:46:01;6.30;;;5.80;;
1356;SDS011;672;48.746;9.210;2022-07-23T14:48:26;6.63;;;6.17;;
1356;SDS011;672;48.746;9.210;2022-07-23T14:50:51;5.90;;;5.60;;
1356;SDS011;672;48.746;9.210;2022-07-23T14:53:16;5.70;;;5.30;;
1356;SDS011;672;48.746;9.210;2022-07-23T14:55:42;6.30;;;5.90;;
1356;SDS011;672;48.746;9.210;2022-07-23T14:58:07;5.77;;;5.37;;
1356;SDS011;672;48.746;9.210;2022-07-23T15:00:32;5.80;;;5.17;;
1356;SDS011;672;48.746;9.210;2022-07-23T15:02:58;5.67;;;5.27;;
1356;SDS011;672;48.746;9.210;2022-07-23T15:05:23;5.90;;;5.50;;
1356;SDS011;672;48.746;9.210;2022-07-23T15:07:48;5.83;;;5.33;;
1356;SDS011;672;48.746;9.210;2022-07-23T15:10:14;6.30;;;5.90;;
1356;SDS011;672;48.746;9.210;2022-07-23T15:12:39;5.67;;;5.37;;
1356;SDS011;672;48.746;9.210;2022-07-23T15:15:04;6.17;;;5.73;;
1356;SDS011;672;48.746;9.210;2022-07-23T15:17:30;6.23;;;5.83;;
1356;SDS011;672;48.746;9.210;2022-07-23T15:19:55;5.80;;;5.40;;
1356;SDS011;672;48.746;9.210;2022-07-23T15:22:20;6.13;;;5.73;;
1356;SDS011;672;48.746;9.210;2022-07-23T15:24:46;6.00;;;5.60;;
1356;SDS011;672;48.746;9.210;2022-07-23T15:27:11;6.80;;;6.30;;
1356;SDS011;672;48.746;9.210;2022-07-23T15:29:36;5.90;;;5.53;;
1356;SDS011;672;48.746;9.210;2022-07-23T15:32:02;5.80;;;5.47;;
1356;SDS011;672;48.746;9.210;2022-07-23T15:34:27;6.10;;;5.70;;
1356;SDS011;672;48.746;9.210;2022-07-23T15:36:52;6.57;;;6.07;;
1356;SDS011;672;48.746;9.210;2022-07-23T15:39:18;5.67;;;5.27;;
1356;SDS011;672;48.746;9.210;2022-07-23T15:41:43;6.07;;;5.60;;
1356;SDS011;672;48.746;9.210;2022-07-23T15:44:08;6.97;;;6.47;;
1356;SDS011;672;48.746;9.210;2022-07-23T15:46:33;6.57;;;6.07;;
1356;SDS011;672;48.746;9.210;2022-07-23T15:48:59;6.30;;;5.90;;
1356;SDS011;672;48.746;9.210;2022-07-23T15:51:24;6.00;;;5.60;;
1356;SDS011;672;48.746;9.210;2022-07-23T15:53:49;6.27;;;5.87;;
1356;SDS011;672;48.746;9.210;2022-07-23T15:56:14;6.20;;;5.80;;
1356;SDS011;672;48.746;9.210;2022-07-23T15:58:40;5.77;;;5.47;;
1356;SDS011;672;48.746;9.210;2022-07-23T16:01:05;6.40;;;5.90;;
1356;SDS011;672;48.746;9.210;2022-07-23T16:03:33;6.10;;;5.60;;
1356;SDS011;672;48.746;9.210;2022-07-23T16:05:59;6.70;;;6.30;;
1356;SDS011;672;48.746;9.210;2022-07-23T16:08:25;6.90;;;6.40;;
1356;SDS011;672;48.746;9.210;2022-07-23T16:10:50;6.33;;;5.93;;
1356;SDS011;672;48.746;9.210;2022-07-23T16:13:15;6.40;;;6.00;;